Time;durP1;ratioP1;P1;durP2;ratioP2;P2;SDS_P1;SDS_P2;PMS_P1;PMS_P2;Temp;Humidity;BMP_temperature;BMP_pressure;BME280_temperature;BME280_humidity;BME280_pressure;Samples;Min_cycle;Max_cycle;Signal;HPM_P1;HPM_P2
2023/07/13 00:01:52;;;;;;;5.78;1.83;;;17.00;99.90;;;;;;5074919;28;20126;-65
2023/07/13 00:04:19;;;;;;;7.82;1.30;;;17.00;99.90;;;;;;5057254;28;20217;-65
2023/07/13 00:06:46;;;;;;;6.68;1.88;;;16.90;99.90;;;;;;5074593;28;20036;-65
2023/07/13 00:09:14;;;;;;;4.13;1.05;;;16.90;99.90;;;;;;5057701;28;20518;-65
2023/07/13 00:11:40;;;;;;;8.10;1.17;;;16.80;99.90;;;;;;5073847;28;20044;-66
2023/07/13 00:14:07;;;;;;;3.50;1.08;;;16.80;99.90;;;;;;5074365;28;20525;-66
2023/07/13 00:16:38;;;;;;;1.65;1.08;;;16.70;99.90;;;;;;5092483;28;20076;-65
2023/07/13 00:19:05;;;;;;;2.60;1.10;;;16.70;99.90;;;;;;5091676;28;20094;-65
2023/07/13 00:21:31;;;;;;;2.92;1.17;;;16.60;99.90;;;;;;5057707;28;20051;-65
2023/07/13 00:23:57;;;;;;;2.28;1.48;;;16.60;99.90;;;;;;5091982;28;20505;-65
2023/07/13 00:26:23;;;;;;;4.82;1.25;;;16.50;99.90;;;;;;5073303;28;20036;-65
2023/07/13 00:28:49;;;;;;;1.30;0.90;;;16.50;99.90;;;;;;5092212;28;20040;-65
2023/07/13 00:31:15;;;;;;;7.47;0.80;;;16.40;99.90;;;;;;5057396;28;20393;-65
2023/07/13 00:33:42;;;;;;;4.80;1.00;;;16.40;99.90;;;;;;5091331;28;20040;-65
2023/07/13 00:36:08;;;;;;;5.45;1.55;;;16.40;99.90;;;;;;5073941;28;20079;-65
2023/07/13 00:38:35;;;;;;;2.00;0.82;;;16.40;99.90;;;;;;5091952;28;20036;-65
2023/07/13 00:41:03;;;;;;;1.55;0.40;;;16.40;99.90;;;;;;5101821;28;20043;-65
2023/07/13 00:43:30;;;;;;;5.22;0.73;;;16.40;99.90;;;;;;5113172;28;20043;-65
2023/07/13 00:45:56;;;;;;;2.33;0.98;;;16.30;99.90;;;;;;5112670;28;20040;-65
2023/07/13 00:48:28;;;;;;;2.28;0.88;;;16.30;99.90;;;;;;5103182;28;20044;-65
2023/07/13 00:50:59;;;;;;;3.63;0.93;;;16.40;99.90;;;;;;5074746;28;20082;-65
2023/07/13 00:53:27;;;;;;;1.42;0.90;;;16.40;99.90;;;;;;5057330;28;20047;-65
2023/07/13 00:55:55;;;;;;;4.68;1.27;;;16.40;99.90;;;;;;5074552;28;20051;-65
2023/07/13 00:58:21;;;;;;;4.88;0.77;;;16.30;99.90;;;;;;5074515;28;20091;-65
2023/07/13 01:00:49;;;;;;;0.90;0.70;;;16.30;99.90;;;;;;5073473;28;20036;-65
2023/07/13 01:03:15;;;;;;;1.40;0.70;;;16.30;99.90;;;;;;5092877;28;20043;-65
2023/07/13 01:05:41;;;;;;;3.17;0.90;;;16.30;99.90;;;;;;5073377;28;20125;-65
2023/07/13 01:08:07;;;;;;;2.50;0.70;;;16.30;99.90;;;;;;5073718;28;20048;-65
2023/07/13 01:10:38;;;;;;;0.25;0.25;;;16.30;99.90;;;;;;5092348;28;20086;-65
2023/07/13 01:13:06;;;;;;;2.15;0.52;;;16.30;99.90;;;;;;5074272;28;20048;-65
2023/07/13 01:15:44;;;;;;;1.13;0.60;;;16.30;99.90;;;;;;5073493;28;20051;-64
2023/07/13 01:18:14;;;;;;;1.60;0.65;;;16.30;99.90;;;;;;5092172;28;20484;-65
2023/07/13 01:20:41;;;;;;;3.92;0.60;;;16.20;99.90;;;;;;5073559;28;20067;-65
2023/07/13 01:23:10;;;;;;;3.08;0.55;;;16.20;99.90;;;;;;5084997;28;20587;-65
2023/07/13 01:25:38;;;;;;;4.95;0.52;;;16.20;99.90;;;;;;5094042;28;20441;-65
2023/07/13 01:28:11;;;;;;;4.40;1.02;;;16.10;99.90;;;;;;5036662;28;20068;-65
2023/07/13 01:30:39;;;;;;;3.85;0.63;;;16.00;99.90;;;;;;5053821;28;20125;-64
2023/07/13 01:33:09;;;;;;;1.10;0.50;;;16.00;99.90;;;;;;5053845;28;20071;-65
2023/07/13 01:35:35;;;;;;;;;;;15.90;99.90;;;;;;5071689;28;20098;-65
2023/07/13 01:38:02;;;;;;;3.90;0.82;;;15.90;99.90;;;;;;5090689;28;19973;-65
2023/07/13 01:40:29;;;;;;;1.33;0.65;;;15.80;99.90;;;;;;5091776;28;20070;-65
2023/07/13 01:42:56;;;;;;;5.00;0.63;;;15.80;99.90;;;;;;5073074;28;20105;-65
2023/07/13 01:45:22;;;;;;;3.05;0.82;;;15.80;99.90;;;;;;5057945;28;20036;-65
2023/07/13 01:47:47;;;;;;;1.30;0.75;;;15.70;99.90;;;;;;5053509;28;20370;-65
2023/07/13 01:50:13;;;;;;;3.15;0.98;;;15.70;99.90;;;;;;5052958;28;20048;-65
2023/07/13 01:52:39;;;;;;;2.40;0.60;;;15.70;99.90;;;;;;5053422;28;20044;-65
2023/07/13 01:55:06;;;;;;;3.00;1.23;;;15.60;99.90;;;;;;5053391;28;20047;-65
2023/07/13 01:57:32;;;;;;;1.40;0.65;;;15.60;99.90;;;;;;5052855;28;20562;-65
2023/07/13 01:59:58;;;;;;;1.15;0.47;;;15.60;99.90;;;;;;5064995;28;20036;-65
2023/07/13 02:02:24;;;;;;;8.40;1.30;;;15.50;99.90;;;;;;5073583;28;20032;-65
2023/07/13 02:04:49;;;;;;;1.95;0.70;;;15.50;99.90;;;;;;5056123;28;20047;-65
2023/07/13 02:07:15;;;;;;;2.20;0.90;;;15.50;99.90;;;;;;5073286;28;20078;-65
2023/07/13 02:09:42;;;;;;;3.58;0.88;;;15.40;99.90;;;;;;5090539;28;20047;-64
2023/07/13 02:12:10;;;;;;;1.85;0.40;;;15.40;99.90;;;;;;5073107;28;20090;-65
2023/07/13 02:14:38;;;;;;;2.15;0.82;;;15.30;99.90;;;;;;5072247;28;20090;-64
2023/07/13 02:17:05;;;;;;;0.95;0.47;;;15.30;99.90;;;;;;5045062;28;20040;-65
2023/07/13 02:19:33;;;;;;;1.38;0.77;;;15.30;99.90;;;;;;5051945;28;20048;-64
2023/07/13 02:22:00;;;;;;;2.75;0.65;;;15.30;99.90;;;;;;5069656;28;20103;-65
2023/07/13 02:24:27;;;;;;;4.35;1.10;;;15.20;99.90;;;;;;5034188;28;20094;-65
2023/07/13 02:26:56;;;;;;;1.85;0.63;;;15.20;99.90;;;;;;5052378;28;20055;-65
2023/07/13 02:29:22;;;;;;;2.50;0.47;;;15.10;99.90;;;;;;5051925;28;20032;-65
2023/07/13 02:31:51;;;;;;;4.32;1.08;;;15.10;99.90;;;;;;5050569;28;20049;-65
2023/07/13 02:34:18;;;;;;;2.42;0.93;;;15.10;99.90;;;;;;5069662;28;20041;-65
2023/07/13 02:36:47;;;;;;;7.07;1.40;;;15.00;99.90;;;;;;5051911;28;20048;-64
2023/07/13 02:39:15;;;;;;;1.95;0.95;;;14.90;99.90;;;;;;5069178;28;20119;-65
2023/07/13 02:41:42;;;;;;;0.98;0.73;;;14.90;99.90;;;;;;5051680;28;20041;-65
2023/07/13 02:44:14;;;;;;;2.97;0.70;;;14.90;99.90;;;;;;5058414;28;20044;-65
2023/07/13 02:46:49;;;;;;;1.50;0.88;;;14.90;99.90;;;;;;5070843;28;20036;-65
2023/07/13 02:49:18;;;;;;;3.25;1.23;;;14.90;99.90;;;;;;5089590;28;20044;-64
2023/07/13 02:51:44;;;;;;;3.47;0.63;;;14.90;99.90;;;;;;5089030;28;20144;-65
2023/07/13 02:54:13;;;;;;;2.33;0.70;;;14.90;99.90;;;;;;5089579;28;20096;-64
2023/07/13 02:56:48;;;;;;;1.83;0.70;;;15.00;99.90;;;;;;5073120;28;20040;-65
2023/07/13 02:59:16;;;;;;;1.08;0.93;;;15.00;99.90;;;;;;5085316;28;20051;-65
2023/07/13 03:01:47;;;;;;;1.60;1.05;;;15.10;99.90;;;;;;5087734;28;20504;-65
2023/07/13 03:04:19;;;;;;;5.80;1.08;;;15.10;99.90;;;;;;5054882;28;20383;-64
2023/07/13 03:06:46;;;;;;;2.88;0.70;;;15.20;99.90;;;;;;5070766;28;20038;-65
2023/07/13 03:09:14;;;;;;;3.67;1.20;;;15.20;99.90;;;;;;5071510;28;20040;-66
2023/07/13 03:11:45;;;;;;;1.80;0.80;;;15.30;99.90;;;;;;5071258;28;20051;-66
2023/07/13 03:14:12;;;;;;;2.67;0.82;;;15.30;99.90;;;;;;5087655;28;20437;-66
2023/07/13 03:16:41;;;;;;;1.60;0.75;;;15.40;99.90;;;;;;5070804;28;20083;-65
2023/07/13 03:19:09;;;;;;;1.02;0.60;;;15.50;99.90;;;;;;5088632;28;20130;-65
2023/07/13 03:21:36;;;;;;;5.60;0.93;;;15.50;99.90;;;;;;5070743;28;20040;-66
2023/07/13 03:24:03;;;;;;;1.55;0.60;;;15.60;99.90;;;;;;5053578;28;20401;-66
2023/07/13 03:26:29;;;;;;;4.10;1.10;;;15.60;99.90;;;;;;5089230;28;20530;-65
2023/07/13 03:28:57;;;;;;;4.18;1.10;;;15.60;99.90;;;;;;5055758;28;20040;-65
2023/07/13 03:31:30;;;;;;;2.55;1.02;;;15.70;99.90;;;;;;5075367;28;20048;-66
2023/07/13 03:33:58;;;;;;;6.90;1.33;;;15.70;99.90;;;;;;5074804;28;20065;-65
2023/07/13 03:36:28;;;;;;;1.85;0.93;;;15.80;99.90;;;;;;5071472;28;20077;-65
2023/07/13 03:38:57;;;;;;;3.45;1.15;;;15.80;99.90;;;;;;5090564;28;20072;-65
2023/07/13 03:41:30;;;;;;;2.55;0.88;;;15.90;99.90;;;;;;5092342;28;20044;-66
2023/07/13 03:43:56;;;;;;;5.72;0.95;;;15.90;99.90;;;;;;5093215;28;20043;-66
2023/07/13 03:46:25;;;;;;;1.30;0.70;;;15.90;99.90;;;;;;5074905;28;20495;-65
2023/07/13 03:48:52;;;;;;;1.05;0.73;;;16.00;99.90;;;;;;5092286;28;20109;-66
2023/07/13 03:51:20;;;;;;;5.85;1.83;;;16.00;99.90;;;;;;5042136;28;20094;-65
2023/07/13 03:53:51;;;;;;;3.75;0.68;;;16.00;99.90;;;;;;5092085;28;20066;-65
2023/07/13 03:56:19;;;;;;;2.72;1.25;;;16.10;99.90;;;;;;5074297;28;20044;-65
2023/07/13 03:58:53;;;;;;;0.85;0.52;;;16.10;99.90;;;;;;5072552;28;20032;-65
2023/07/13 04:01:24;;;;;;;1.80;0.82;;;16.00;99.90;;;;;;5086123;28;20459;-65
2023/07/13 04:03:55;;;;;;;3.10;1.00;;;16.10;99.90;;;;;;5092183;28;20094;-65
2023/07/13 04:06:29;;;;;;;1.65;0.57;;;16.00;99.90;;;;;;5091731;28;20127;-65
2023/07/13 04:08:59;;;;;;;0.88;0.63;;;16.00;99.90;;;;;;5074225;28;20123;-65
2023/07/13 04:11:32;;;;;;;2.50;1.13;;;16.00;99.90;;;;;;5058061;28;20043;-65
2023/07/13 04:14:00;;;;;;;1.65;0.70;;;15.90;99.90;;;;;;5074533;28;20077;-66
2023/07/13 04:16:27;;;;;;;0.93;0.50;;;15.90;99.90;;;;;;5057348;28;20047;-65
2023/07/13 04:18:59;;;;;;;1.23;0.70;;;16.00;99.90;;;;;;5073217;28;20403;-65
2023/07/13 04:21:29;;;;;;;1.38;0.60;;;15.90;99.90;;;;;;5074560;28;20097;-65
2023/07/13 04:23:55;;;;;;;;;;;16.00;99.90;;;;;;5073935;28;20052;-66
2023/07/13 04:26:22;;;;;;;0.43;0.35;;;16.00;99.90;;;;;;5057821;28;19926;-65
2023/07/13 04:28:49;;;;;;;3.08;1.10;;;16.00;99.90;;;;;;5057509;28;20522;-65
2023/07/13 04:31:20;;;;;;;0.77;0.45;;;16.10;99.90;;;;;;5074220;28;20044;-65
2023/07/13 04:33:49;;;;;;;1.45;0.75;;;16.20;99.90;;;;;;5061165;28;20106;-65
2023/07/13 04:36:19;;;;;;;3.38;0.95;;;16.20;99.90;;;;;;5071935;28;20040;-65
2023/07/13 04:38:50;;;;;;;3.83;0.80;;;16.20;99.90;;;;;;5052713;28;20653;-65
2023/07/13 04:41:16;;;;;;;1.65;0.77;;;16.20;99.90;;;;;;5035954;28;20131;-65
2023/07/13 04:43:43;;;;;;;5.15;0.80;;;16.30;99.90;;;;;;5053152;28;20086;-66
2023/07/13 04:46:13;;;;;;;3.35;0.60;;;16.30;99.90;;;;;;5054151;28;20040;-65
2023/07/13 04:48:40;;;;;;;0.82;0.57;;;16.30;99.90;;;;;;5037043;28;20041;-65
2023/07/13 04:51:10;;;;;;;2.83;0.35;;;16.30;99.90;;;;;;5052887;28;20504;-66
2023/07/13 04:53:43;;;;;;;0.75;0.60;;;16.30;99.90;;;;;;5070641;28;20052;-65
2023/07/13 04:56:11;;;;;;;1.17;0.47;;;16.30;99.90;;;;;;5069363;28;20040;-65
2023/07/13 04:58:40;;;;;;;1.27;0.45;;;16.20;99.90;;;;;;5090387;28;20089;-65
2023/07/13 05:01:08;;;;;;;1.75;0.95;;;16.30;99.90;;;;;;5094135;28;20036;-66
2023/07/13 05:03:35;;;;;;;2.20;0.50;;;16.30;99.90;;;;;;5111965;28;20123;-66
2023/07/13 05:06:04;;;;;;;1.05;0.68;;;16.30;99.90;;;;;;5076635;28;20100;-66
2023/07/13 05:08:36;;;;;;;7.15;1.08;;;16.40;99.90;;;;;;5043638;28;20048;-66
2023/07/13 05:11:06;;;;;;;5.20;1.08;;;16.50;99.90;;;;;;5025430;28;20073;-66
2023/07/13 05:13:37;;;;;;;2.33;0.80;;;16.60;99.90;;;;;;5057141;28;20044;-66
2023/07/13 05:16:14;;;;;;;0.95;0.60;;;16.60;99.90;;;;;;5055431;28;20488;-65
2023/07/13 05:18:41;;;;;;;2.97;0.73;;;16.60;99.90;;;;;;5072476;28;20052;-65
2023/07/13 05:21:09;;;;;;;0.65;0.50;;;16.60;99.90;;;;;;5073130;28;20044;-65
2023/07/13 05:23:44;;;;;;;4.43;0.90;;;16.70;99.90;;;;;;5090384;28;20043;-66
2023/07/13 05:26:11;;;;;;;2.97;1.13;;;16.80;99.90;;;;;;5090757;28;20040;-66
2023/07/13 05:28:40;;;;;;;3.70;0.73;;;16.90;99.90;;;;;;5055050;28;20044;-66
2023/07/13 05:31:10;;;;;;;1.17;0.93;;;17.00;99.90;;;;;;5052787;28;20115;-65
2023/07/13 05:33:37;;;;;;;2.70;0.73;;;17.10;99.90;;;;;;5052358;28;20048;-65
2023/07/13 05:36:04;;;;;;;4.55;0.88;;;17.20;99.90;;;;;;5036376;28;20055;-66
2023/07/13 05:38:31;;;;;;;4.82;1.00;;;17.30;99.90;;;;;;5052392;28;20078;-65
2023/07/13 05:41:00;;;;;;;;;;;17.40;99.90;;;;;;5053339;28;20036;-65
2023/07/13 05:43:33;;;;;;;2.15;0.43;;;17.40;99.90;;;;;;5070648;28;20393;-65
2023/07/13 05:46:02;;;;;;;2.88;0.90;;;17.50;99.90;;;;;;5070803;28;20045;-65
2023/07/13 05:48:38;;;;;;;3.33;0.98;;;17.50;99.90;;;;;;5052048;28;20078;-66
2023/07/13 05:51:07;;;;;;;5.35;0.90;;;17.60;99.90;;;;;;5052598;28;20041;-65
2023/07/13 05:53:36;;;;;;;2.10;0.77;;;17.70;99.90;;;;;;5035916;28;20055;-66
2023/07/13 05:56:13;;;;;;;4.03;1.10;;;17.70;99.90;;;;;;5054118;28;20436;-67
2023/07/13 05:58:41;;;;;;;3.35;0.52;;;17.70;99.90;;;;;;5053439;28;20080;-66
2023/07/13 06:01:13;;;;;;;2.53;1.05;;;17.80;99.90;;;;;;5110043;28;20547;-66
2023/07/13 06:03:42;;;;;;;2.15;1.40;;;17.90;99.90;;;;;;5060983;28;20491;-67
2023/07/13 06:06:10;;;;;;;3.10;1.60;;;18.00;99.90;;;;;;5052451;28;20029;-66
2023/07/13 06:08:37;;;;;;;5.50;1.00;;;18.10;99.90;;;;;;5049713;28;20082;-67
2023/07/13 06:11:19;;;;;;;2.08;0.75;;;18.10;99.90;;;;;;5090260;28;20052;-66
2023/07/13 06:13:45;;;;;;;2.63;0.70;;;18.20;99.90;;;;;;5090395;28;20040;-66
2023/07/13 06:16:14;;;;;;;2.10;0.65;;;18.20;99.90;;;;;;5089492;28;20131;-67
2023/07/13 06:18:44;;;;;;;1.90;0.68;;;18.10;99.90;;;;;;5052545;28;20501;-68
2023/07/13 06:21:20;;;;;;;1.75;0.80;;;18.10;99.90;;;;;;5034552;28;20040;-67
2023/07/13 06:23:51;;;;;;;3.92;1.02;;;18.20;99.90;;;;;;5031050;28;20068;-67
2023/07/13 06:26:22;;;;;;;3.45;0.80;;;18.30;99.90;;;;;;5045339;28;20044;-65
2023/07/13 06:28:49;;;;;;;2.75;0.85;;;18.50;99.90;;;;;;5069225;28;20037;-67
2023/07/13 06:31:16;;;;;;;0.93;0.63;;;18.60;99.90;;;;;;5051775;28;20048;-67
2023/07/13 06:33:44;;;;;;;1.15;0.73;;;18.70;99.90;;;;;;5069381;28;20036;-66
2023/07/13 06:36:14;;;;;;;1.85;0.95;;;18.70;99.90;;;;;;5027425;28;20045;-66
2023/07/13 06:38:40;;;;;;;2.78;0.82;;;18.70;99.90;;;;;;5069368;28;20052;-66
2023/07/13 06:41:08;;;;;;;4.22;0.60;;;18.70;99.90;;;;;;5051823;28;20068;-67
2023/07/13 06:43:34;;;;;;;3.45;0.50;;;18.80;99.90;;;;;;5033371;28;20497;-67
2023/07/13 06:46:01;;;;;;;3.60;1.00;;;19.00;99.90;;;;;;5051810;28;20041;-66
2023/07/13 06:48:33;;;;;;;1.38;0.50;;;19.30;99.90;;;;;;5051802;28;20129;-67
2023/07/13 06:50:59;;;;;;;2.67;0.67;;;19.70;99.90;;;;;;5068756;28;20476;-67
2023/07/13 06:53:29;;;;;;;0.85;0.50;;;20.20;99.90;;;;;;5069023;28;20278;-67
2023/07/13 06:55:55;;;;;;;1.00;0.35;;;20.50;99.90;;;;;;5051606;28;20044;-65
2023/07/13 06:58:21;;;;;;;0.90;0.80;;;20.50;99.90;;;;;;5049797;28;20097;-67
2023/07/13 07:00:53;;;;;;;1.38;0.50;;;20.50;99.90;;;;;;5052552;28;20052;-67
2023/07/13 07:03:23;;;;;;;0.17;0.17;;;20.40;99.90;;;;;;5066572;28;20052;-68
2023/07/13 07:05:53;;;;;;;;;;;20.30;99.90;;;;;;5068146;28;20032;-67
2023/07/13 07:08:19;;;;;;;0.70;0.50;;;20.20;99.90;;;;;;5051990;28;19927;-67
2023/07/13 07:10:45;;;;;;;0.90;0.47;;;20.10;99.90;;;;;;5033972;28;20429;-67
2023/07/13 07:13:13;;;;;;;3.92;0.60;;;20.00;99.90;;;;;;5067445;28;20101;-67
2023/07/13 07:15:49;;;;;;;1.05;0.50;;;20.00;99.90;;;;;;5048496;28;20041;-67
2023/07/13 07:18:15;;;;;;;1.50;0.70;;;19.90;99.90;;;;;;5021436;28;20056;-67
2023/07/13 07:20:42;;;;;;;0.45;0.40;;;20.00;99.90;;;;;;5069164;28;20591;-67
2023/07/13 07:23:10;;;;;;;0.98;0.50;;;20.00;99.90;;;;;;5050865;28;20028;-67
2023/07/13 07:25:41;;;;;;;1.90;0.40;;;20.10;99.90;;;;;;5051339;28;20514;-66
2023/07/13 07:28:09;;;;;;;4.55;0.75;;;20.40;99.90;;;;;;5071437;28;20052;-68
2023/07/13 07:30:37;;;;;;;0.75;0.40;;;20.80;99.90;;;;;;5054371;28;20071;-69
2023/07/13 07:33:04;;;;;;;0.50;0.22;;;21.10;99.90;;;;;;5021128;28;20472;-66
2023/07/13 07:35:30;;;;;;;1.45;0.47;;;21.20;99.90;;;;;;5071364;28;20032;-67
2023/07/13 07:37:59;;;;;;;2.38;1.20;;;21.10;99.90;;;;;;5089181;28;20140;-67
2023/07/13 07:40:26;;;;;;;1.02;0.50;;;20.90;99.90;;;;;;5033976;28;20040;-67
2023/07/13 07:42:54;;;;;;;0.82;0.43;;;20.70;99.90;;;;;;5086065;28;20837;-67
2023/07/13 07:45:21;;;;;;;2.58;0.40;;;20.50;99.90;;;;;;5069904;28;20502;-67
2023/07/13 07:47:48;;;;;;;0.73;0.52;;;20.40;99.90;;;;;;5037393;28;20131;-67
2023/07/13 07:50:15;;;;;;;1.02;0.65;;;20.40;99.90;;;;;;5071342;28;20039;-68
2023/07/13 07:52:44;;;;;;;0.75;0.40;;;20.50;99.90;;;;;;5020806;28;20492;-67
2023/07/13 07:55:12;;;;;;;3.33;0.50;;;20.40;99.90;;;;;;5088745;28;20115;-67
2023/07/13 07:57:38;;;;;;;2.00;0.40;;;20.40;99.90;;;;;;5061598;28;20504;-67
2023/07/13 08:00:07;;;;;;;2.65;0.65;;;20.30;99.90;;;;;;5053162;28;20028;-67
2023/07/13 08:02:35;;;;;;;;;;;20.20;99.90;;;;;;5051439;28;20048;-68
2023/07/13 08:05:06;;;;;;;1.95;0.80;;;20.20;99.90;;;;;;5085627;28;19942;-67
2023/07/13 08:07:38;;;;;;;1.23;0.75;;;20.30;99.90;;;;;;5088352;28;20040;-67
2023/07/13 08:10:11;;;;;;;1.85;0.70;;;20.40;99.90;;;;;;5054346;28;20223;-67
2023/07/13 08:12:39;;;;;;;3.20;0.85;;;20.50;99.90;;;;;;5070384;28;20040;-69
2023/07/13 08:15:13;;;;;;;1.73;0.70;;;20.40;99.90;;;;;;5072621;28;20415;-67
2023/07/13 08:17:40;;;;;;;1.33;0.35;;;20.30;99.90;;;;;;5057738;28;20039;-66
2023/07/13 08:20:10;;;;;;;1.10;0.45;;;20.10;99.90;;;;;;5074840;28;20051;-67
2023/07/13 08:22:37;;;;;;;4.45;1.48;;;20.00;99.90;;;;;;5073845;28;20076;-67
2023/07/13 08:25:07;;;;;;;0.98;0.47;;;19.90;99.90;;;;;;5073417;28;20048;-67
2023/07/13 08:27:34;;;;;;;;;;;19.90;99.90;;;;;;5074025;28;20044;-66
2023/07/13 08:30:02;;;;;;;2.22;0.70;;;20.00;99.90;;;;;;5073563;28;19919;-68
2023/07/13 08:32:30;;;;;;;2.80;0.80;;;20.10;99.90;;;;;;5074167;28;20118;-68
2023/07/13 08:35:00;;;;;;;4.95;0.65;;;20.30;99.90;;;;;;5073514;28;20660;-67
2023/07/13 08:37:31;;;;;;;3.88;0.60;;;20.60;99.90;;;;;;5057802;28;20040;-67
2023/07/13 08:39:59;;;;;;;1.17;0.55;;;20.80;99.90;;;;;;5057828;28;20403;-68
2023/07/13 08:42:46;;;;;;;2.15;0.63;;;21.10;99.90;;;;;;5091788;28;20437;-69
2023/07/13 08:45:23;;;;;;;1.98;0.73;;;21.30;99.90;;;;;;5057582;28;20036;-69
2023/07/13 08:48:26;;;;;;;1.33;0.60;;;21.30;99.90;;;;;;5074013;28;20527;-69
2023/07/13 08:51:14;;;;;;;0.75;0.35;;;21.00;99.90;;;;;;5073121;28;20036;-68
2023/07/13 08:53:51;;;;;;;0.47;0.30;;;20.70;99.90;;;;;;5057515;28;20123;-67
2023/07/13 08:56:22;;;;;;;0.60;0.40;;;20.50;99.90;;;;;;5026388;28;20043;-67
2023/07/13 08:58:54;;;;;;;1.63;0.57;;;20.30;99.90;;;;;;5073669;28;20083;-68
2023/07/13 09:02:02;;;;;;;5.90;0.63;;;20.20;99.90;;;;;;5076941;28;20385;-68
2023/07/13 09:04:36;;;;;;;3.03;0.60;;;20.10;99.90;;;;;;5053112;28;20376;-67
2023/07/13 09:07:42;;;;;;;0.50;0.30;;;20.20;99.90;;;;;;5050146;28;20583;-67
2023/07/13 09:10:17;;;;;;;0.52;0.30;;;20.30;99.90;;;;;;5052102;28;20064;-69
2023/07/13 09:13:22;;;;;;;0.50;0.30;;;20.40;99.90;;;;;;5053561;28;20044;-68
2023/07/13 09:15:50;;;;;;;0.77;0.40;;;20.40;99.90;;;;;;5070431;28;20052;-67
2023/07/13 09:18:47;;;;;;;0.52;0.52;;;20.70;99.90;;;;;;5089365;28;20044;-68
2023/07/13 09:21:28;;;;;;;0.80;0.65;;;21.20;99.90;;;;;;5073371;28;20160;-67
2023/07/13 09:23:59;;;;;;;2.17;0.47;;;21.50;99.90;;;;;;5069938;28;20040;-68
2023/07/13 09:26:32;;;;;;;1.42;0.57;;;21.70;99.90;;;;;;5035639;28;20048;-67
2023/07/13 09:29:09;;;;;;;1.00;0.57;;;21.80;99.90;;;;;;5068887;28;20137;-68
2023/07/13 09:31:49;;;;;;;1.65;0.20;;;22.00;99.90;;;;;;5036673;28;20076;-68
2023/07/13 09:34:16;;;;;;;0.98;0.40;;;22.10;99.90;;;;;;5035378;28;20044;-68
2023/07/13 09:36:44;;;;;;;2.45;0.60;;;22.40;99.90;;;;;;5052630;28;20044;-68
2023/07/13 09:39:36;;;;;;;2.03;0.57;;;22.70;99.90;;;;;;5035939;28;20045;-67
2023/07/13 09:42:16;;;;;;;1.58;0.65;;;23.00;99.90;;;;;;5050474;28;20127;-67
2023/07/13 09:45:06;;;;;;;1.10;0.30;;;23.40;99.90;;;;;;5049016;28;20063;-68
2023/07/13 09:47:40;;;;;;;0.57;0.20;;;23.90;99.90;;;;;;5050639;28;20048;-66
2023/07/13 09:50:18;;;;;;;1.48;0.50;;;24.20;99.90;;;;;;5069870;28;20085;-67
2023/07/13 09:52:47;;;;;;;1.02;0.50;;;24.40;99.90;;;;;;5051706;28;20040;-66
2023/07/13 09:55:37;;;;;;;1.55;0.40;;;24.60;99.90;;;;;;5051657;28;20066;-67
2023/07/13 09:58:13;;;;;;;1.15;0.82;;;24.80;99.90;;;;;;5050361;28;20053;-67
2023/07/13 10:00:40;;;;;;;0.68;0.25;;;24.70;99.90;;;;;;5050302;28;20121;-66
2023/07/13 10:03:24;;;;;;;1.08;0.55;;;24.60;99.90;;;;;;5072344;28;20072;-67
2023/07/13 10:05:54;;;;;;;1.60;0.47;;;24.60;98.60;;;;;;5071699;28;20039;-68
2023/07/13 10:08:22;;;;;;;1.27;0.68;;;24.50;97.60;;;;;;5081605;28;20513;-67
2023/07/13 10:10:59;;;;;;;3.53;1.15;;;24.50;98.30;;;;;;5026542;28;20029;-67
2023/07/13 10:13:36;;;;;;;1.40;0.32;;;24.60;99.00;;;;;;5049227;28;20512;-69
2023/07/13 10:16:08;;;;;;;1.27;0.30;;;24.90;99.50;;;;;;5022373;28;20105;-67
2023/07/13 10:18:55;;;;;;;1.60;0.50;;;25.00;98.70;;;;;;5032122;28;20052;-66
2023/07/13 10:21:27;;;;;;;1.27;0.73;;;25.00;97.90;;;;;;5029599;28;20133;-65
2023/07/13 10:24:25;;;;;;;3.00;0.40;;;25.00;98.90;;;;;;5033423;28;20064;-67
2023/07/13 10:27:17;;;;;;;1.15;0.50;;;25.10;98.40;;;;;;5043549;28;20041;-67
2023/07/13 10:29:56;;;;;;;0.65;0.45;;;24.80;96.90;;;;;;5031997;28;20405;-68
2023/07/13 10:32:25;;;;;;;0.60;0.50;;;24.40;97.30;;;;;;5049072;28;20061;-68
2023/07/13 10:34:52;;;;;;;1.00;0.65;;;24.20;97.70;;;;;;5049344;28;20048;-66
2023/07/13 10:37:51;;;;;;;1.35;0.40;;;24.30;97.60;;;;;;5037519;28;20041;-67
2023/07/13 10:40:57;;;;;;;1.77;0.35;;;24.60;96.10;;;;;;5031027;28;20045;-68
2023/07/13 10:43:31;;;;;;;1.60;0.75;;;24.40;94.90;;;;;;5049534;28;20041;-66
2023/07/13 10:46:03;;;;;;;1.02;0.50;;;24.30;95.30;;;;;;5033642;28;20045;-66
2023/07/13 10:48:34;;;;;;;1.58;0.70;;;24.50;94.30;;;;;;5052244;28;20439;-65
2023/07/13 10:51:02;;;;;;;0.55;0.20;;;24.50;94.50;;;;;;5035020;28;20064;-67
2023/07/13 10:53:34;;;;;;;0.47;0.28;;;24.50;94.20;;;;;;5035221;28;20047;-66
2023/07/13 10:56:16;;;;;;;0.60;0.20;;;24.30;94.00;;;;;;5068504;28;20489;-67
2023/07/13 10:58:46;;;;;;;2.15;0.50;;;24.30;94.10;;;;;;5051261;28;20127;-66
2023/07/13 11:01:17;;;;;;;1.48;0.80;;;24.40;94.30;;;;;;5050968;28;20509;-65
2023/07/13 11:04:02;;;;;;;1.02;0.80;;;24.80;94.50;;;;;;5068579;28;20039;-65
2023/07/13 11:06:38;;;;;;;1.23;0.40;;;25.10;94.20;;;;;;5046984;28;20501;-66
2023/07/13 11:09:32;;;;;;;1.27;0.43;;;25.20;94.50;;;;;;5026245;28;20080;-66
2023/07/13 11:12:02;;;;;;;1.08;0.50;;;25.40;93.00;;;;;;5031470;28;20134;-66
2023/07/13 11:15:03;;;;;;;2.97;0.50;;;25.20;93.20;;;;;;5014818;28;20044;-66
2023/07/13 11:17:51;;;;;;;2.70;0.35;;;24.90;92.60;;;;;;5048363;28;20048;-67
2023/07/13 11:20:30;;;;;;;0.75;0.47;;;24.60;92.80;;;;;;5042061;28;20489;-67
2023/07/13 11:23:27;;;;;;;1.27;0.68;;;24.20;92.50;;;;;;5031100;28;20033;-66
2023/07/13 11:25:56;;;;;;;2.33;0.50;;;24.00;91.90;;;;;;5047904;28;20083;-66
2023/07/13 11:28:31;;;;;;;0.85;0.50;;;24.00;92.20;;;;;;5066566;28;20064;-65
2023/07/13 11:31:01;;;;;;;2.88;0.40;;;23.90;92.20;;;;;;5056884;28;20040;-65
2023/07/13 11:33:42;;;;;;;2.65;0.40;;;23.70;91.90;;;;;;5061981;28;20036;-67
2023/07/13 11:36:22;;;;;;;0.52;0.30;;;23.70;91.90;;;;;;5071595;28;20046;-66
2023/07/13 11:39:30;;;;;;;1.10;0.63;;;23.70;91.70;;;;;;5070557;28;20044;-67
2023/07/13 11:42:01;;;;;;;1.55;0.68;;;23.50;91.80;;;;;;5088912;28;20117;-66
2023/07/13 11:44:33;;;;;;;1.58;0.60;;;23.50;92.30;;;;;;5068182;28;20036;-67
2023/07/13 11:47:11;;;;;;;2.05;0.60;;;23.50;91.70;;;;;;5071122;28;20051;-67
2023/07/13 11:49:56;;;;;;;2.75;0.40;;;23.60;91.70;;;;;;5072583;28;20040;-65
2023/07/13 11:52:30;;;;;;;0.90;0.40;;;23.70;91.80;;;;;;5057445;28;20209;-65
2023/07/13 11:54:57;;;;;;;0.90;0.50;;;24.00;91.40;;;;;;5058000;28;20070;-66
2023/07/13 11:57:38;;;;;;;0.57;0.35;;;24.10;90.90;;;;;;5058265;28;20040;-66
2023/07/13 12:00:19;;;;;;;1.02;0.40;;;24.10;91.40;;;;;;5087800;28;20059;-66
2023/07/13 12:02:59;;;;;;;0.73;0.50;;;24.20;91.40;;;;;;5073393;28;20044;-67
2023/07/13 12:06:06;;;;;;;2.80;0.60;;;24.20;91.20;;;;;;5089946;28;20120;-66
2023/07/13 12:08:40;;;;;;;0.63;0.38;;;24.30;90.30;;;;;;5057770;28;20040;-66
2023/07/13 12:11:18;;;;;;;0.90;0.30;;;24.30;90.20;;;;;;5058172;28;20079;-67
2023/07/13 12:13:47;;;;;;;1.03;0.37;;;24.30;89.80;;;;;;5057379;28;20044;-66
2023/07/13 12:16:32;;;;;;;2.72;0.35;;;24.40;90.70;;;;;;5041371;28;20040;-67
2023/07/13 12:19:01;;;;;;;0.93;0.40;;;24.50;90.50;;;;;;5074006;28;20093;-67
2023/07/13 12:21:40;;;;;;;2.05;0.63;;;24.40;90.00;;;;;;5074302;28;20069;-67
2023/07/13 12:24:16;;;;;;;1.00;0.43;;;24.30;90.20;;;;;;5074358;28;20127;-67
2023/07/13 12:26:43;;;;;;;1.77;0.63;;;24.30;88.10;;;;;;5073355;28;20427;-66
2023/07/13 12:29:19;;;;;;;1.67;0.65;;;24.20;88.10;;;;;;5067730;28;20054;-66
2023/07/13 12:31:52;;;;;;;2.90;0.80;;;24.10;88.20;;;;;;5055327;28;20450;-65
2023/07/13 12:34:54;;;;;;;1.50;0.68;;;24.00;87.80;;;;;;5037758;28;20048;-67
2023/07/13 12:37:22;;;;;;;2.88;0.88;;;24.10;87.30;;;;;;5052517;28;20044;-66
2023/07/13 12:39:57;;;;;;;1.23;0.60;;;24.10;86.90;;;;;;5091216;28;20047;-67
2023/07/13 12:42:33;;;;;;;2.63;0.85;;;24.00;86.20;;;;;;5090970;28;20503;-66
2023/07/13 12:45:15;;;;;;;2.03;0.70;;;23.70;86.20;;;;;;5092104;28;20055;-66
2023/07/13 12:47:48;;;;;;;0.75;0.40;;;23.60;87.10;;;;;;5055686;28;20510;-67
2023/07/13 12:50:19;;;;;;;0.75;0.40;;;23.50;86.70;;;;;;5065900;28;20051;-67
2023/07/13 12:52:52;;;;;;;1.05;0.38;;;23.60;87.20;;;;;;5057089;28;20047;-66
2023/07/13 12:55:20;;;;;;;0.77;0.40;;;23.70;85.90;;;;;;5072858;28;20048;-65
2023/07/13 12:57:49;;;;;;;0.80;0.40;;;23.70;86.10;;;;;;5091983;28;20396;-65
2023/07/13 13:00:33;;;;;;;2.97;0.60;;;23.70;85.90;;;;;;5101135;28;20404;-66
2023/07/13 13:03:25;;;;;;;1.17;0.40;;;23.70;86.00;;;;;;5111992;28;20074;-66
2023/07/13 13:06:23;;;;;;;1.00;0.30;;;23.70;86.30;;;;;;5111456;28;20047;-66
2023/07/13 13:08:53;;;;;;;0.93;0.28;;;23.50;86.00;;;;;;5093261;28;20031;-65
2023/07/13 13:11:21;;;;;;;2.15;0.40;;;23.40;86.50;;;;;;5077776;28;20078;-65
2023/07/13 13:13:47;;;;;;;2.22;0.35;;;23.30;86.80;;;;;;5093537;28;20861;-66